Rapid River, MI (49878)

11:09 PM EDT on September 15, 2014 (GMT -0400)
Ensign Twp | Change Station
CLOSE
Current Station
Personal Weather Station
Location: Rapid River, MI
Elevation: 679 ft
Nearby Weather Stations

Elev 679 ft 45.88 °N, 86.90 °W | Updated 5 minutes ago

Overcast
Overcast
47.6 °F
Feels Like 48 °F
N
0.0
Wind Variable Wind from ENE
Gusts 0.0 mph

Today
High -- | Low -- °F
--% Chance of Precip.
Yesterday
High -- | Low -- °F
Precip. -- in
7:25 AM 7:58 PM
Waning Gibbous, 50% visible
Pressure 30.12 in
Visibility 10.0 miles
Clouds Few 3700 ft
Overcast 6500 ft
Windchill 48 °F
Dew Point 47 °F
Humidity 98%
Rainfall 0.06 in
Snow Depth Not available.
UV 0 out of 12
Pollen 2.80 out of 12
Ozone Good
PM2.5 Good
Flu Activity Not available.
METAR KESC 160255Z AUTO 00000KT 10SM FEW037 OVC065 09/08 A3012 RMK AO1 52007

More Conditions Fewer Conditions

Pressure 30.12 in
Visibility 10.0 miles
Clouds Few 3700 ft
Overcast 6500 ft
Windchill 48 °F
Dew Point 47 °F
Humidity 98%
Rainfall 0.06 in
Snow Depth Not available.
UV 0 out of 12
Pollen 2.80 out of 12
Ozone Good
PM2.5 Good
Flu Activity Not available.
METAR KESC 160255Z AUTO 00000KT 10SM FEW037 OVC065 09/08 A3012 RMK AO1 52007

More Conditions Fewer Conditions

10-Day Weather Forecast

Almanac

Astronomy

Sep. 15, 2014 Rise Set
Actual Time 7:25 AM EDT 7:58 PM EDT
Civil Twilight 6:55 AM EDT 8:28 PM EDT
Nautical Twilight 6:20 AM EDT 9:04 PM EDT
Astronomical Twilight 5:43 AM EDT 9:40 PM EDT
Moon No Moon Rise 2:44 PM EDT (9/15)
Length of Visible Light 13h 32m
Length of Day
12h 33m
Tomorrow will be 3m 12s shorter.
Waning Gibbous, 50% of the Moon is Illuminated
Today
Waning Gibbous
Sep 24
New
Oct 1
First Quarter
Oct 8
Full
Oct 15
Last Quarter

Today's Extremes

State Highs State Lows

Community

WunderPhotos

Upload Photos

1,753,689 photos uploaded!

Nearby

Air Quality

  Air Quality AQ Index Pollutant
Yesterday Good
OZONE
Yesterday Good
PM2.5
Current Good
OZONE
Current Good
PM2.5
Monday Good
OZONE
Monday Good
PM2.5
Tuesday Good
OZONE
Tuesday Good
PM2.5
Wednesday Good
OZONE
Wednesday Good
PM2.5
Thursday Good
OZONE
Thursday Good
PM2.5
Friday Good
OZONE
Friday Good
PM2.5
Saturday Good
OZONE
Saturday Good
PM2.5

Snow Depth

Station Depth Elevation
No new snow has been reported.

Earthquake Activity

City Distance Mag. Time & Date
No recent earthquake activity has been reported nearby.
Minimum magnitude displayed is 2.5.

Coastal Water Temperatures

Place Temperature
Menominee, MI 61.0 °F
Port Inland, MI 61.0 °F

Nearby Weather Stations